Time;durP1;ratioP1;P1;durP2;ratioP2;P2;SDS_P1;SDS_P2;PMS_P1;PMS_P2;Temp;Humidity;BMP_temperature;BMP_pressure;BME280_temperature;BME280_humidity;BME280_pressure;Samples;Min_cycle;Max_cycle;Signal;HPM_P1;HPM_P2
2022/07/10 08:47:31;;;;;;;3.35;1.70;;;;;;;;;;6212086;23;20470;-83
2022/07/10 08:49:56;;;;;;;2.22;1.70;;;;;;;;;;6218031;23;20015;-82
2022/07/10 08:52:31;;;;;;;1.73;1.63;;;;;;;;;;6218393;23;20026;-83
2022/07/10 08:54:57;;;;;;;2.53;2.28;;;;;;;;;;6217553;23;20005;-83
2022/07/10 08:57:24;;;;;;;2.90;1.73;;;;;;;;;;6190978;23;20316;-83
2022/07/10 08:59:49;;;;;;;1.90;1.63;;;;;;;;;;6217762;23;20011;-83
2022/07/10 09:02:15;;;;;;;2.97;1.80;;;;;;;;;;6217383;23;20020;-83
2022/07/10 09:04:41;;;;;;;1.83;1.65;;;;;;;;;;6217829;23;20001;-84
2022/07/10 09:07:07;;;;;;;2.00;1.85;;;;;;;;;;6190977;23;20054;-83
2022/07/10 09:09:50;;;;;;;3.83;1.65;;;;;;;;;;6217443;23;20015;-83
2022/07/10 09:12:16;;;;;;;3.40;1.80;;;;;;;;;;6217559;23;20005;-83
2022/07/10 09:14:41;;;;;;;2.65;1.77;;;;;;;;;;6217487;23;20011;-84
2022/07/10 09:17:07;;;;;;;1.73;1.63;;;;;;;;;;6217444;23;20011;-83
2022/07/10 09:19:32;;;;;;;1.90;1.80;;;;;;;;;;6217372;23;20379;-84
2022/07/10 09:22:11;;;;;;;2.90;1.55;;;;;;;;;;6217237;23;20443;-83
2022/07/10 09:24:40;;;;;;;;;;;;;;;;;;6218242;23;19997;-83
2022/07/10 09:27:07;;;;;;;3.47;1.60;;;;;;;;;;6217180;23;19908;-83
2022/07/10 09:29:44;;;;;;;2.05;1.90;;;;;;;;;;6217366;23;20009;-83
2022/07/10 09:32:09;;;;;;;4.38;2.65;;;;;;;;;;6217214;23;20040;-84
2022/07/10 09:34:49;;;;;;;2.95;1.98;;;;;;;;;;6218015;23;20001;-84
2022/07/10 09:37:23;;;;;;;1.80;1.70;;;;;;;;;;6217836;23;20000;-84
2022/07/10 09:39:57;;;;;;;1.92;1.50;;;;;;;;;;6217341;23;20086;-83
2022/07/10 09:42:26;;;;;;;2.80;1.75;;;;;;;;;;6217358;23;20088;-83
2022/07/10 09:44:52;;;;;;;1.83;1.50;;;;;;;;;;6217103;23;20005;-83
2022/07/10 09:47:23;;;;;;;2.30;1.67;;;;;;;;;;6216926;23;20039;-83
2022/07/10 09:49:49;;;;;;;2.55;1.70;;;;;;;;;;6217283;23;20005;-83
2022/07/10 09:52:18;;;;;;;1.67;1.55;;;;;;;;;;6217233;23;20004;-82
2022/07/10 09:54:46;;;;;;;3.40;1.52;;;;;;;;;;6217138;23;20001;-83
2022/07/10 09:57:14;;;;;;;3.33;1.95;;;;;;;;;;6217217;23;19997;-83
2022/07/10 09:59:40;;;;;;;3.58;1.60;;;;;;;;;;6216991;23;20044;-83
2022/07/10 10:02:09;;;;;;;1.67;1.42;;;;;;;;;;6217395;23;20000;-84
2022/07/10 10:04:36;;;;;;;1.83;1.35;;;;;;;;;;6217687;23;20003;-84
2022/07/10 10:07:02;;;;;;;2.28;1.20;;;;;;;;;;6217559;23;20079;-85
2022/07/10 10:09:42;;;;;;;2.38;1.27;;;;;;;;;;6217549;23;20012;-88
2022/07/10 10:12:16;;;;;;;2.70;1.38;;;;;;;;;;6217879;23;20147;-85
2022/07/10 10:14:43;;;;;;;2.95;1.35;;;;;;;;;;6218274;23;20008;-86
2022/07/10 10:17:10;;;;;;;2.60;1.40;;;;;;;;;;6217508;23;20008;-89
2022/07/10 10:22:23;;;;;;;2.28;1.88;;;;;;;;;;6217476;23;20442;-83
2022/07/10 10:24:49;;;;;;;1.55;1.42;;;;;;;;;;6216697;23;20087;-85
2022/07/10 10:27:15;;;;;;;2.63;1.60;;;;;;;;;;6190018;23;20032;-85
2022/07/10 10:29:41;;;;;;;3.42;1.90;;;;;;;;;;6216739;23;20388;-83
2022/07/10 10:32:09;;;;;;;2.63;1.50;;;;;;;;;;6216910;23;20007;-85
2022/07/10 10:34:39;;;;;;;2.38;1.80;;;;;;;;;;6216756;23;20462;-85
2022/07/10 10:37:07;;;;;;;2.83;1.90;;;;;;;;;;6190149;23;20332;-85
2022/07/10 10:39:52;;;;;;;2.42;1.90;;;;;;;;;;6216870;23;20011;-82
2022/07/10 10:42:38;;;;;;;2.10;1.90;;;;;;;;;;6216952;23;20102;-82
2022/07/10 10:45:28;;;;;;;2.33;1.90;;;;;;;;;;6216616;23;19997;-82
2022/07/10 10:48:23;;;;;;;2.78;1.95;;;;;;;;;;6187124;23;20009;-84
2022/07/10 10:50:53;;;;;;;3.22;2.22;;;;;;;;;;6177749;23;20057;-92
2022/07/10 10:53:27;;;;;;;2.55;1.90;;;;;;;;;;6189259;23;20064;-86
2022/07/10 10:56:02;;;;;;;2.15;1.98;;;;;;;;;;6190120;23;20001;-81
2022/07/10 10:58:35;;;;;;;3.42;1.98;;;;;;;;;;6187337;23;20016;-84
2022/07/10 11:01:30;;;;;;;4.47;1.85;;;;;;;;;;6186364;23;20005;-86
2022/07/10 11:04:04;;;;;;;1.85;1.75;;;;;;;;;;6189122;23;20005;-86
2022/07/10 11:06:40;;;;;;;2.08;1.88;;;;;;;;;;6186372;23;20032;-86
2022/07/10 11:09:38;;;;;;;3.08;2.03;;;;;;;;;;6186544;23;20005;-86
2022/07/10 11:12:08;;;;;;;1.70;1.60;;;;;;;;;;6152706;23;20016;-87
2022/07/10 11:14:38;;;;;;;2.85;1.80;;;;;;;;;;6186552;23;20227;-87
2022/07/10 11:17:06;;;;;;;5.70;2.10;;;;;;;;;;6159977;23;20417;-89
2022/07/10 11:19:33;;;;;;;2.10;1.30;;;;;;;;;;6159761;23;20329;-86
2022/07/10 11:22:10;;;;;;;1.85;1.40;;;;;;;;;;6186474;23;20009;-82
2022/07/10 11:24:38;;;;;;;2.83;1.42;;;;;;;;;;6186418;23;20008;-84
2022/07/10 11:27:41;;;;;;;1.67;1.48;;;;;;;;;;6186752;23;20027;-82
2022/07/10 11:30:07;;;;;;;1.42;1.23;;;;;;;;;;6186552;23;20425;-81
2022/07/10 11:32:33;;;;;;;1.77;1.40;;;;;;;;;;6160285;23;20009;-87
2022/07/10 11:34:59;;;;;;;2.10;1.40;;;;;;;;;;6186417;23;20520;-83
2022/07/10 11:37:29;;;;;;;2.15;1.58;;;;;;;;;;6186206;23;20001;-84
2022/07/10 11:40:08;;;;;;;1.60;1.33;;;;;;;;;;6159979;23;20081;-83
2022/07/10 13:27:23;;;;;;;1.77;1.40;;;;;;;;;;6184659;23;20051;-81
2022/07/10 13:29:48;;;;;;;2.63;1.70;;;;;;;;;;6187470;23;20459;-81
2022/07/10 13:32:14;;;;;;;1.48;1.35;;;;;;;;;;6187199;23;20076;-81
2022/07/10 13:34:39;;;;;;;1.73;1.48;;;;;;;;;;6208495;23;20005;-81
2022/07/10 13:37:05;;;;;;;3.50;1.33;;;;;;;;;;6217213;23;20001;-81
2022/07/10 13:39:31;;;;;;;1.50;1.40;;;;;;;;;;6217183;23;20004;-82
2022/07/10 13:41:56;;;;;;;1.48;1.23;;;;;;;;;;6217390;23;20007;-81
2022/07/10 13:44:22;;;;;;;1.38;1.27;;;;;;;;;;6217158;23;20327;-82
2022/07/10 13:46:47;;;;;;;1.70;1.55;;;;;;;;;;6217242;23;19997;-81
2022/07/10 13:49:13;;;;;;;1.60;1.50;;;;;;;;;;6217158;23;20076;-81
2022/07/10 13:51:38;;;;;;;1.40;1.30;;;;;;;;;;6217070;23;20075;-82
2022/07/10 13:54:04;;;;;;;1.60;1.20;;;;;;;;;;6216877;23;20004;-81
2022/07/10 13:56:29;;;;;;;1.50;1.40;;;;;;;;;;6217252;23;20007;-82
2022/07/10 13:58:55;;;;;;;2.35;1.40;;;;;;;;;;6217165;23;20088;-82
2022/07/10 14:01:21;;;;;;;1.42;1.33;;;;;;;;;;6217038;23;20035;-82
2022/07/10 14:03:47;;;;;;;1.30;1.20;;;;;;;;;;6216756;23;20075;-82
2022/07/10 14:06:13;;;;;;;2.80;1.63;;;;;;;;;;6217333;23;20000;-82
2022/07/10 14:08:38;;;;;;;2.45;1.13;;;;;;;;;;6190414;23;20336;-82
2022/07/10 14:11:04;;;;;;;1.77;1.30;;;;;;;;;;6216851;23;20007;-83
2022/07/10 14:13:30;;;;;;;2.15;1.08;;;;;;;;;;6188792;23;20016;-82
2022/07/10 14:15:55;;;;;;;1.52;1.40;;;;;;;;;;6216187;23;20004;-81
2022/07/10 14:18:41;;;;;;;1.52;1.02;;;;;;;;;;6216536;23;20005;-81
2022/07/10 14:21:10;;;;;;;1.95;1.60;;;;;;;;;;6216468;23;20076;-82
2022/07/10 14:23:38;;;;;;;1.40;1.30;;;;;;;;;;6216395;23;19997;-82
2022/07/10 14:26:05;;;;;;;2.17;1.40;;;;;;;;;;6190190;23;20015;-82
2022/07/10 14:28:31;;;;;;;1.95;1.23;;;;;;;;;;6216473;23;20005;-82
2022/07/10 14:31:00;;;;;;;2.38;1.52;;;;;;;;;;6216448;23;20005;-82
2022/07/10 14:33:25;;;;;;;1.85;1.27;;;;;;;;;;6216459;23;20428;-82
2022/07/10 14:35:51;;;;;;;3.05;1.40;;;;;;;;;;6216537;23;20008;-82
2022/07/10 14:38:16;;;;;;;1.67;1.40;;;;;;;;;;6216451;23;20028;-82
2022/07/10 14:40:42;;;;;;;1.40;1.30;;;;;;;;;;6216746;23;20008;-83
2022/07/10 14:43:07;;;;;;;1.83;1.48;;;;;;;;;;6216453;23;20007;-82
2022/07/10 14:45:33;;;;;;;1.40;1.25;;;;;;;;;;6216439;23;20001;-82
2022/07/10 14:47:58;;;;;;;3.72;1.42;;;;;;;;;;6216306;23;20012;-82
2022/07/10 14:50:24;;;;;;;1.65;1.38;;;;;;;;;;6216468;23;20011;-82
2022/07/10 14:52:49;;;;;;;1.55;1.45;;;;;;;;;;6216508;23;20001;-82
2022/07/10 14:55:14;;;;;;;1.42;1.15;;;;;;;;;;6216359;23;20057;-83
2022/07/10 14:57:40;;;;;;;1.83;1.45;;;;;;;;;;6216045;23;20047;-83
2022/07/10 15:00:06;;;;;;;2.05;1.27;;;;;;;;;;6216288;23;20007;-83
2022/07/10 15:02:33;;;;;;;2.40;1.38;;;;;;;;;;6216773;23;20013;-82
2022/07/10 15:05:01;;;;;;;2.97;1.45;;;;;;;;;;6189599;23;19996;-82
2022/07/10 15:07:27;;;;;;;2.88;1.40;;;;;;;;;;6216039;23;20007;-83
2022/07/10 15:09:52;;;;;;;1.35;1.23;;;;;;;;;;6216187;23;20008;-83
2022/07/10 15:12:20;;;;;;;1.90;1.13;;;;;;;;;;6215995;23;20037;-82
2022/07/10 15:14:46;;;;;;;1.75;1.40;;;;;;;;;;6215934;23;20004;-82
2022/07/10 15:17:11;;;;;;;3.38;1.27;;;;;;;;;;6216213;23;20027;-82
2022/07/10 15:19:37;;;;;;;2.50;1.33;;;;;;;;;;6215989;23;20004;-83
2022/07/10 15:22:03;;;;;;;1.48;1.38;;;;;;;;;;6216180;23;20027;-83
2022/07/10 15:24:28;;;;;;;2.15;1.45;;;;;;;;;;6188921;23;20379;-82
2022/07/10 15:26:53;;;;;;;1.48;1.35;;;;;;;;;;6216138;23;20012;-83
2022/07/10 15:29:23;;;;;;;1.40;1.30;;;;;;;;;;6215866;23;20005;-83
2022/07/10 15:31:49;;;;;;;3.10;1.30;;;;;;;;;;6216186;23;20001;-83
2022/07/10 15:34:16;;;;;;;2.65;1.58;;;;;;;;;;6215965;23;20304;-83
2022/07/10 15:36:42;;;;;;;2.28;1.40;;;;;;;;;;6216008;23;20083;-83
2022/07/10 15:39:07;;;;;;;2.85;1.60;;;;;;;;;;6215916;23;20317;-83
2022/07/10 15:41:34;;;;;;;3.00;1.45;;;;;;;;;;6215954;23;20027;-83
2022/07/10 15:44:00;;;;;;;5.72;1.60;;;;;;;;;;6215953;23;20000;-83
2022/07/10 15:46:25;;;;;;;2.50;1.48;;;;;;;;;;6215963;23;20015;-83
2022/07/10 15:48:51;;;;;;;2.28;1.80;;;;;;;;;;6216239;23;20000;-86
2022/07/10 15:51:17;;;;;;;2.25;1.40;;;;;;;;;;6215562;23;20035;-86
2022/07/10 15:53:43;;;;;;;2.00;1.80;;;;;;;;;;6216049;23;20005;-84
2022/07/10 15:56:08;;;;;;;2.53;1.50;;;;;;;;;;6216061;23;20001;-84
2022/07/10 15:58:34;;;;;;;1.90;1.40;;;;;;;;;;6218824;23;20000;-83
2022/07/10 16:00:59;;;;;;;1.48;1.38;;;;;;;;;;6216250;23;20005;-84
2022/07/10 16:03:25;;;;;;;1.98;1.40;;;;;;;;;;6216245;23;19996;-84
2022/07/10 16:05:50;;;;;;;1.60;1.50;;;;;;;;;;6216280;23;20008;-85
2022/07/10 16:08:20;;;;;;;1.92;1.77;;;;;;;;;;6216037;23;20005;-85
2022/07/10 16:10:46;;;;;;;2.45;1.85;;;;;;;;;;6189222;23;20100;-84
2022/07/10 16:13:11;;;;;;;2.03;1.40;;;;;;;;;;6215856;23;20005;-85
2022/07/10 16:15:37;;;;;;;3.50;1.50;;;;;;;;;;6216358;23;20004;-85
2022/07/10 16:18:03;;;;;;;2.47;1.75;;;;;;;;;;6215983;23;20455;-86
2022/07/10 16:20:29;;;;;;;2.58;1.42;;;;;;;;;;6215937;23;19997;-85
2022/07/10 16:22:54;;;;;;;2.75;1.42;;;;;;;;;;6215912;23;20009;-86
2022/07/10 16:28:03;;;;;;;1.73;1.63;;;;;;;;;;6216121;23;20028;-91
2022/07/10 16:30:29;;;;;;;1.70;1.50;;;;;;;;;;6216932;23;19996;-90
2022/07/10 16:32:55;;;;;;;2.08;1.40;;;;;;;;;;6216969;23;20074;-95
2022/07/10 16:35:20;;;;;;;2.22;1.55;;;;;;;;;;6217306;23;20007;-93
2022/07/10 16:37:45;;;;;;;1.60;1.50;;;;;;;;;;6218457;23;20011;-92
2022/07/10 16:40:11;;;;;;;1.90;1.70;;;;;;;;;;6219056;23;20000;-91
2022/07/10 16:42:36;;;;;;;1.60;1.40;;;;;;;;;;6218760;23;20005;-92
2022/07/10 16:45:02;;;;;;;1.50;1.40;;;;;;;;;;6192340;23;20420;-92
2022/07/10 16:47:30;;;;;;;2.10;1.70;;;;;;;;;;6218959;23;20001;-93
2022/07/10 16:49:57;;;;;;;2.17;1.60;;;;;;;;;;6218857;23;20072;-86
2022/07/10 16:52:23;;;;;;;2.55;1.83;;;;;;;;;;6218761;23;20001;-94
2022/07/10 16:54:48;;;;;;;1.70;1.60;;;;;;;;;;6218731;23;20324;-93
2022/07/10 16:57:14;;;;;;;1.55;1.45;;;;;;;;;;6218704;23;20047;-93
2022/07/10 16:59:39;;;;;;;6.82;5.22;;;;;;;;;;6225284;23;20009;-92
2022/07/10 17:02:05;;;;;;;5.88;3.15;;;;;;;;;;6231662;23;20074;-94
2022/07/10 17:04:37;;;;;;;2.97;2.10;;;;;;;;;;6222065;23;19997;-83
2022/07/10 17:07:04;;;;;;;2.55;1.90;;;;;;;;;;6219339;23;20009;-83
2022/07/10 17:09:30;;;;;;;2.00;1.90;;;;;;;;;;6192465;23;20005;-94
2022/07/10 17:11:55;;;;;;;1.67;1.30;;;;;;;;;;6218096;23;20009;-93
2022/07/10 17:14:20;;;;;;;2.72;1.98;;;;;;;;;;6219685;23;20063;-95
2022/07/10 17:16:46;;;;;;;2.05;1.80;;;;;;;;;;6215742;23;20084;-86
2022/07/10 17:19:11;;;;;;;4.00;1.80;;;;;;;;;;6217894;23;20009;-90
2022/07/10 17:21:37;;;;;;;2.22;1.92;;;;;;;;;;6218330;23;20005;-87
2022/07/10 17:24:03;;;;;;;1.85;1.67;;;;;;;;;;6224985;23;20004;-86
2022/07/10 17:26:28;;;;;;;2.20;1.42;;;;;;;;;;6226683;23;20005;-88
2022/07/10 17:28:54;;;;;;;2.00;1.50;;;;;;;;;;6236014;23;20004;-86
2022/07/10 17:31:19;;;;;;;5.80;1.98;;;;;;;;;;6237686;23;20001;-91
2022/07/10 17:33:45;;;;;;;1.70;1.60;;;;;;;;;;6232762;23;20035;-88
2022/07/10 17:36:10;;;;;;;1.40;1.30;;;;;;;;;;6226463;23;20004;-93
2022/07/10 17:38:35;;;;;;;2.00;1.67;;;;;;;;;;6221126;23;20005;-89
2022/07/10 17:41:03;;;;;;;1.52;1.40;;;;;;;;;;6221493;23;20008;-95
2022/07/10 17:43:28;;;;;;;1.70;1.50;;;;;;;;;;6223301;23;20001;-92
2022/07/10 17:45:54;;;;;;;1.17;1.10;;;;;;;;;;6225983;23;20008;-93
2022/07/10 17:48:19;;;;;;;2.10;1.60;;;;;;;;;;6203326;23;20013;-96
2022/07/10 17:50:45;;;;;;;1.38;1.27;;;;;;;;;;6195486;23;20038;-92
2022/07/10 17:53:11;;;;;;;2.35;1.30;;;;;;;;;;6220712;23;20060;-90
2022/07/10 17:55:36;;;;;;;1.58;1.42;;;;;;;;;;6219899;23;20005;-92
2022/07/10 17:58:03;;;;;;;2.63;1.30;;;;;;;;;;6220403;23;20003;-90
2022/07/10 18:00:29;;;;;;;1.77;1.50;;;;;;;;;;6220267;23;20057;-88
2022/07/10 18:02:54;;;;;;;2.20;1.35;;;;;;;;;;6221557;23;19997;-89
2022/07/10 18:05:20;;;;;;;1.55;1.45;;;;;;;;;;6221598;23;20008;-89
2022/07/10 18:07:45;;;;;;;1.48;1.38;;;;;;;;;;6223880;23;20146;-88
2022/07/10 18:10:12;;;;;;;1.63;1.52;;;;;;;;;;6222207;23;20007;-92
2022/07/10 18:12:38;;;;;;;1.60;1.50;;;;;;;;;;6220870;23;20004;-89
2022/07/10 18:15:04;;;;;;;1.80;1.70;;;;;;;;;;6218306;23;20040;-87
2022/07/10 18:17:30;;;;;;;1.52;1.42;;;;;;;;;;6217947;23;20323;-88
2022/07/10 18:19:58;;;;;;;3.75;1.50;;;;;;;;;;6217722;23;20044;-87
2022/07/10 18:22:25;;;;;;;3.60;1.85;;;;;;;;;;6218081;23;20023;-87
2022/07/10 18:24:50;;;;;;;3.42;1.73;;;;;;;;;;6217588;23;20004;-87
2022/07/10 18:27:15;;;;;;;3.70;1.63;;;;;;;;;;6217483;23;20436;-87
2022/07/10 18:29:41;;;;;;;2.40;1.73;;;;;;;;;;6217862;23;20379;-87
2022/07/10 18:32:07;;;;;;;1.80;1.70;;;;;;;;;;6192601;23;20008;-93
